createdAt,value
2019-04-10T00:01:27.750Z,25.10
2019-04-10T00:03:57.311Z,28.03
2019-04-10T00:06:27.902Z,26.00
2019-04-10T00:08:57.296Z,27.27
2019-04-10T00:11:26.966Z,25.80
2019-04-10T00:13:56.344Z,27.83
2019-04-10T00:16:25.623Z,27.40
2019-04-10T00:18:56.025Z,26.00
2019-04-10T00:21:25.620Z,29.00
2019-04-10T00:23:55.562Z,27.03
2019-04-10T00:26:25.758Z,26.07
2019-04-10T00:28:56.093Z,25.43
2019-04-10T00:31:26.360Z,26.20
2019-04-10T00:33:56.940Z,28.40
2019-04-10T00:36:26.851Z,27.53
2019-04-10T00:38:56.171Z,26.70
2019-04-10T00:41:25.490Z,28.77
2019-04-10T00:43:55.282Z,26.37
2019-04-10T00:46:25.077Z,26.60
2019-04-10T00:48:54.549Z,24.70
2019-04-10T00:51:23.949Z,26.97
2019-04-10T00:53:53.854Z,26.97
2019-04-10T00:56:24.277Z,26.87
2019-04-10T00:58:53.686Z,27.00
2019-04-10T01:01:23.680Z,26.43
2019-04-10T01:03:53.905Z,26.07
2019-04-10T01:06:24.113Z,25.83
2019-04-10T01:08:53.476Z,27.43
2019-04-10T01:11:23.180Z,28.07
2019-04-10T01:13:53.600Z,28.37
2019-04-10T01:16:23.185Z,28.60
2019-04-10T01:18:53.284Z,25.70
2019-04-10T01:21:22.712Z,27.00
2019-04-10T01:23:53.139Z,27.50
2019-04-10T01:26:23.277Z,27.17
2019-04-10T01:28:54.068Z,26.97
2019-04-10T01:31:23.537Z,27.77
2019-04-10T01:33:52.845Z,25.23
2019-04-10T01:36:22.771Z,28.93
2019-04-10T01:38:52.244Z,28.30
2019-04-10T01:41:21.675Z,25.50
2019-04-10T01:43:51.181Z,24.47
2019-04-10T01:46:20.589Z,25.40
2019-04-10T01:48:49.937Z,28.43
2019-04-10T01:51:19.259Z,27.63
2019-04-10T01:53:48.603Z,26.17
2019-04-10T01:56:25.125Z,28.43
2019-04-10T01:58:49.801Z,25.93
2019-04-10T02:01:36.774Z,23.53
2019-04-10T02:04:06.759Z,24.60
2019-04-10T02:06:36.212Z,24.27
2019-04-10T02:09:09.566Z,24.63
2019-04-10T02:11:39.890Z,25.00
2019-04-10T02:14:09.408Z,24.43
2019-04-10T02:16:39.029Z,27.10
2019-04-10T02:19:08.669Z,23.73
2019-04-10T02:21:38.114Z,26.53
2019-04-10T02:24:07.502Z,24.17
2019-04-10T02:26:37.949Z,24.77
2019-04-10T02:29:07.506Z,24.43
2019-04-10T02:31:36.860Z,23.57
2019-04-10T02:34:07.530Z,24.47
2019-04-10T02:36:38.490Z,25.60
2019-04-10T02:39:17.637Z,24.17
2019-04-10T02:41:39.259Z,24.30
2019-04-10T02:44:09.994Z,24.50
2019-04-10T02:46:41.105Z,24.07
2019-04-10T02:49:12.249Z,23.77
2019-04-10T02:51:43.141Z,23.93
2019-04-10T02:54:13.770Z,24.50
2019-04-10T02:56:45.611Z,23.03
2019-04-10T02:59:15.537Z,22.30
2019-04-10T03:01:45.322Z,22.93
2019-04-10T03:04:16.334Z,22.37
2019-04-10T03:06:46.987Z,23.27
2019-04-10T03:09:32.622Z,22.43
2019-04-10T03:11:48.013Z,22.57
2019-04-10T03:14:18.786Z,22.57
2019-04-10T03:16:48.383Z,22.90
2019-04-10T03:19:17.733Z,22.30
2019-04-10T03:21:47.150Z,22.07
2019-04-10T03:24:16.510Z,23.50
2019-04-10T03:26:45.865Z,22.57
2019-04-10T03:29:15.701Z,21.43
2019-04-10T03:31:45.806Z,23.77
2019-04-10T03:34:38.093Z,21.27
2019-04-10T03:37:05.103Z,21.63
2019-04-10T03:39:35.894Z,21.83
2019-04-10T03:42:06.419Z,22.07
2019-04-10T03:44:36.205Z,21.70
2019-04-10T03:47:05.502Z,21.60
2019-04-10T03:49:34.751Z,20.90
2019-04-10T03:52:05.074Z,21.43
2019-04-10T03:54:34.437Z,22.43
2019-04-10T03:57:04.583Z,23.17
2019-04-10T03:59:34.113Z,21.43
2019-04-10T04:02:03.386Z,22.57
2019-04-10T04:04:33.359Z,20.50
2019-04-10T04:07:02.719Z,20.17
2019-04-10T04:09:32.037Z,22.10
2019-04-10T04:12:02.303Z,22.10
2019-04-10T04:14:32.582Z,20.80
2019-04-10T04:17:01.990Z,21.47
2019-04-10T04:19:32.381Z,22.80
2019-04-10T04:22:02.283Z,28.17
2019-04-10T04:24:31.656Z,20.07
2019-04-10T04:27:00.873Z,21.27
2019-04-10T04:29:30.387Z,20.83
2019-04-10T04:31:59.739Z,21.57
2019-04-10T04:34:29.421Z,21.43
2019-04-10T04:36:58.744Z,20.93
2019-04-10T04:39:29.925Z,19.70
2019-04-10T04:41:59.042Z,19.53
2019-04-10T04:44:29.200Z,20.17
2019-04-10T04:46:59.110Z,19.07
2019-04-10T04:49:28.890Z,19.93
2019-04-10T04:51:58.215Z,19.63
2019-04-10T04:54:28.821Z,18.80
2019-04-10T04:56:58.166Z,16.90
2019-04-10T04:59:28.125Z,19.90
2019-04-10T05:01:57.704Z,18.87
2019-04-10T05:04:27.095Z,17.93
2019-04-10T05:06:57.762Z,17.30
2019-04-10T05:09:33.321Z,18.10
2019-04-10T05:11:58.586Z,17.30
2019-04-10T05:14:28.022Z,17.60
2019-04-10T05:16:57.523Z,18.27
2019-04-10T05:19:27.527Z,18.07
2019-04-10T05:21:57.478Z,19.07
2019-04-10T05:24:27.930Z,18.00
2019-04-10T05:26:57.359Z,18.33
2019-04-10T05:29:29.089Z,17.60
2019-04-10T05:31:58.714Z,18.10
2019-04-10T05:34:28.141Z,15.20
2019-04-10T05:36:57.420Z,16.70
2019-04-10T05:39:34.358Z,17.80
2019-04-10T05:42:00.677Z,17.43
2019-04-10T05:44:29.188Z,16.80
2019-04-10T05:46:58.495Z,17.03
2019-04-10T05:49:28.836Z,18.30
2019-04-10T05:51:58.224Z,16.77
2019-04-10T05:54:27.485Z,15.30
2019-04-10T05:56:56.911Z,16.07
2019-04-10T05:59:26.226Z,15.83
2019-04-10T06:01:56.764Z,18.50
2019-04-10T06:04:26.408Z,15.33
2019-04-10T06:06:56.908Z,15.73
2019-04-10T06:09:26.887Z,16.10
2019-04-10T06:11:57.307Z,16.30
2019-04-10T06:14:26.789Z,16.17
2019-04-10T06:16:58.092Z,15.13
2019-04-10T06:19:27.397Z,16.23
2019-04-10T06:21:57.665Z,15.63
2019-04-10T06:47:58.450Z,14.87
2019-04-10T06:50:29.425Z,16.13
2019-04-10T06:52:58.929Z,14.90
2019-04-10T06:55:30.328Z,16.87
2019-04-10T06:58:15.772Z,15.73
2019-04-10T07:00:49.729Z,16.00
2019-04-10T07:03:16.955Z,15.97
2019-04-10T07:06:00.568Z,16.23
2019-04-10T07:08:22.209Z,15.70
2019-04-10T07:10:56.183Z,14.70
2019-04-10T07:13:19.945Z,16.63
2019-04-10T07:15:49.793Z,16.37
2019-04-10T07:18:21.954Z,17.00
2019-04-10T07:20:50.460Z,15.67
2019-04-10T07:23:25.843Z,17.20
2019-04-10T07:25:51.914Z,16.30
2019-04-10T07:28:21.564Z,17.33
2019-04-10T07:30:51.985Z,16.57
2019-04-10T07:33:21.414Z,17.67
2019-04-10T07:35:53.679Z,15.93
2019-04-10T07:38:22.797Z,18.07
2019-04-10T07:40:55.021Z,16.77
2019-04-10T07:43:27.149Z,16.93
2019-04-10T07:45:56.921Z,15.80
2019-04-10T07:48:27.378Z,12.87
2019-04-10T07:50:57.054Z,18.07
2019-04-10T07:53:26.803Z,16.70
2019-04-10T07:56:02.852Z,18.10
2019-04-10T07:58:31.240Z,15.70
2019-04-10T08:01:01.006Z,17.40
2019-04-10T08:03:33.581Z,18.60
2019-04-10T08:06:02.925Z,17.00
2019-04-10T08:08:36.733Z,16.50
2019-04-10T08:11:07.029Z,17.70
2019-04-10T08:13:36.651Z,17.90
2019-04-10T08:16:06.303Z,17.90
2019-04-10T08:18:35.849Z,19.37
2019-04-10T08:21:07.018Z,17.20
2019-04-10T08:23:36.516Z,16.53
2019-04-10T08:26:05.940Z,18.60
2019-04-10T08:28:35.374Z,17.37
2019-04-10T08:31:04.739Z,17.67
2019-04-10T08:33:35.188Z,17.33
2019-04-10T08:36:05.333Z,19.10
2019-04-10T08:38:34.631Z,17.63
2019-04-10T08:41:05.028Z,19.13
2019-04-10T08:43:34.464Z,17.23
2019-04-10T08:46:03.743Z,18.00
2019-04-10T08:48:34.553Z,14.43
2019-04-10T08:51:03.973Z,16.63
2019-04-10T08:53:34.114Z,17.43
2019-04-10T08:56:04.692Z,17.07
2019-04-10T08:58:34.986Z,17.90
2019-04-10T09:01:05.092Z,18.10
2019-04-10T09:03:35.020Z,16.93
2019-04-10T09:06:05.392Z,16.93
2019-04-10T09:08:35.098Z,18.50
2019-04-10T09:11:05.006Z,19.03
2019-04-10T09:13:34.736Z,16.73
2019-04-10T09:16:04.556Z,17.53
2019-04-10T09:18:34.015Z,17.40
2019-04-10T09:21:03.288Z,18.17
2019-04-10T09:23:41.004Z,17.70
2019-04-10T09:26:03.815Z,18.40
2019-04-10T09:28:33.285Z,18.73
2019-04-10T09:31:02.548Z,19.50
2019-04-10T09:33:32.451Z,21.10
2019-04-10T09:36:02.739Z,17.33
2019-04-10T09:38:32.271Z,18.80
2019-04-10T09:41:01.618Z,18.27
2019-04-10T09:43:31.789Z,17.97
2019-04-10T09:46:02.307Z,19.57
2019-04-10T09:48:31.744Z,18.40
2019-04-10T09:51:01.358Z,16.83
2019-04-10T09:53:30.830Z,16.57
2019-04-10T09:56:00.990Z,16.83
2019-04-10T09:58:30.380Z,18.23
2019-04-10T10:01:01.434Z,16.90
2019-04-10T10:03:30.932Z,18.57
2019-04-10T10:06:00.720Z,17.87
2019-04-10T10:08:31.605Z,19.50
2019-04-10T10:11:04.006Z,17.33
2019-04-10T10:13:37.274Z,19.57
2019-04-10T10:16:06.831Z,19.30
2019-04-10T10:18:37.336Z,19.57
2019-04-10T10:21:06.788Z,19.00
2019-04-10T10:23:36.129Z,19.30
2019-04-10T10:26:05.842Z,19.20
2019-04-10T10:28:35.396Z,17.80
2019-04-10T10:31:04.860Z,19.10
2019-04-10T10:33:34.417Z,18.93
2019-04-10T10:36:03.778Z,18.10
2019-04-10T10:38:33.067Z,18.30
2019-04-10T10:41:02.469Z,20.00
2019-04-10T10:43:32.202Z,18.83
2019-04-10T10:46:02.953Z,20.20
2019-04-10T10:48:32.271Z,18.80
2019-04-10T10:51:02.419Z,19.00
2019-04-10T10:53:32.385Z,19.23
2019-04-10T10:56:02.267Z,18.77
2019-04-10T10:58:32.164Z,17.90
2019-04-10T11:01:01.783Z,19.73
2019-04-10T11:03:32.021Z,19.40
2019-04-10T11:06:02.429Z,19.70
2019-04-10T11:08:31.879Z,18.87
2019-04-10T11:11:01.482Z,15.50
2019-04-10T11:13:31.071Z,17.53
2019-04-10T11:16:05.774Z,17.63
2019-04-10T11:18:35.258Z,18.27
2019-04-10T11:21:08.891Z,17.37
2019-04-10T11:23:36.383Z,19.03
2019-04-10T11:26:05.732Z,19.03
2019-04-10T11:28:35.308Z,18.07
2019-04-10T11:31:04.716Z,18.10
2019-04-10T11:33:34.818Z,19.20
2019-04-10T11:36:07.806Z,18.37
2019-04-10T11:38:37.491Z,18.67
2019-04-10T11:41:07.916Z,17.87
2019-04-10T11:43:39.509Z,20.50
2019-04-10T11:46:10.292Z,17.80
2019-04-10T11:48:42.005Z,17.80
2019-04-10T11:51:13.266Z,18.27
2019-04-10T11:53:47.234Z,17.90
2019-04-10T11:56:13.668Z,18.57
2019-04-10T12:01:14.188Z,17.97
2019-04-10T12:06:15.725Z,18.20
2019-04-10T12:11:19.839Z,17.33
2019-04-10T12:13:48.328Z,17.13
2019-04-10T12:16:17.819Z,16.60
2019-04-10T12:18:47.175Z,18.33
2019-04-10T12:21:17.677Z,14.70
2019-04-10T12:23:47.355Z,17.60
2019-04-10T12:26:17.741Z,17.50
2019-04-10T12:28:47.257Z,17.30
2019-04-10T12:31:17.626Z,18.03
2019-04-10T12:33:47.087Z,17.03
2019-04-10T12:36:16.794Z,16.73
2019-04-10T12:38:46.086Z,16.33
2019-04-10T12:41:15.348Z,17.50
2019-04-10T12:43:45.226Z,16.53
2019-04-10T12:46:14.924Z,16.83
2019-04-10T12:48:45.196Z,16.70
2019-04-10T12:51:14.634Z,16.43
2019-04-10T12:53:43.910Z,16.40
2019-04-10T12:56:13.733Z,16.93
2019-04-10T12:58:44.669Z,15.93
2019-04-10T13:01:14.261Z,17.37
2019-04-10T13:03:43.834Z,15.50
2019-04-10T13:06:13.652Z,15.23
2019-04-10T13:08:55.811Z,15.93
2019-04-10T13:11:14.202Z,15.90
2019-04-10T13:13:44.440Z,15.80
2019-04-10T13:16:16.138Z,16.47
2019-04-10T13:18:46.865Z,15.63
2019-04-10T13:21:16.261Z,16.00
2019-04-10T13:23:46.815Z,16.73
2019-04-10T13:26:16.240Z,16.50
2019-04-10T13:28:45.654Z,15.90
2019-04-10T13:31:15.073Z,17.23
2019-04-10T13:33:44.763Z,15.57
2019-04-10T13:36:14.161Z,17.67
2019-04-10T13:38:44.310Z,16.00
2019-04-10T13:41:14.353Z,16.70
2019-04-10T13:43:44.245Z,16.13
2019-04-10T13:46:14.085Z,17.00
2019-04-10T13:48:43.473Z,15.90
2019-04-10T13:51:13.105Z,16.40
2019-04-10T13:53:42.600Z,16.30
2019-04-10T13:56:12.848Z,16.80
2019-04-10T13:58:42.597Z,16.23
2019-04-10T14:01:16.247Z,16.80
2019-04-10T14:03:46.895Z,17.70
2019-04-10T14:06:17.219Z,15.00
2019-04-10T14:09:04.668Z,16.13
2019-04-10T14:11:17.728Z,15.57
2019-04-10T14:13:47.034Z,17.70
2019-04-10T14:16:16.995Z,18.17
2019-04-10T14:18:46.428Z,15.80
2019-04-10T14:21:17.236Z,17.03
2019-04-10T14:23:47.239Z,15.53
2019-04-10T14:26:45.991Z,17.03
2019-04-10T14:29:18.920Z,17.13
2019-04-10T14:31:53.168Z,18.70
2019-04-10T14:34:22.889Z,17.83
2019-04-10T14:36:52.706Z,18.30
2019-04-10T14:39:22.890Z,18.80
2019-04-10T14:41:53.837Z,18.60
2019-04-10T14:44:23.369Z,17.23
2019-04-10T14:46:53.889Z,18.43
2019-04-10T14:49:23.338Z,18.23
2019-04-10T14:51:52.889Z,17.60
2019-04-10T14:54:23.764Z,18.13
2019-04-10T14:56:53.112Z,17.57
2019-04-10T14:59:22.390Z,17.47
2019-04-10T15:01:52.522Z,17.00
2019-04-10T15:04:21.948Z,17.63
2019-04-10T15:06:51.219Z,15.50
2019-04-10T15:09:26.076Z,18.07
2019-04-10T15:11:55.285Z,16.80
2019-04-10T15:14:25.865Z,16.23
2019-04-10T15:16:59.978Z,17.50
2019-04-10T15:19:26.884Z,16.30
2019-04-10T15:21:56.301Z,16.00
2019-04-10T15:24:25.833Z,16.60
2019-04-10T15:26:55.663Z,16.47
2019-04-10T15:29:25.728Z,16.00
2019-04-10T15:31:55.868Z,16.53
2019-04-10T15:34:26.123Z,16.87
2019-04-10T15:36:56.360Z,15.93
2019-04-10T15:39:33.968Z,17.17
2019-04-10T15:41:57.916Z,18.53
2019-04-10T15:44:27.239Z,17.97
2019-04-10T15:47:07.340Z,17.87
2019-04-10T15:49:27.595Z,15.70
2019-04-10T15:51:57.325Z,16.50
2019-04-10T15:54:26.701Z,17.43
2019-04-10T15:56:56.269Z,15.47
2019-04-10T15:59:26.122Z,16.07
2019-04-10T16:01:55.426Z,17.30
2019-04-10T16:04:25.539Z,16.90
2019-04-10T16:06:55.968Z,16.00
2019-04-10T16:09:27.369Z,15.87
2019-04-10T16:12:12.857Z,16.80
2019-04-10T16:14:42.293Z,16.07
2019-04-10T16:17:39.976Z,16.13
2019-04-10T16:20:34.491Z,15.10
2019-04-10T16:23:12.325Z,13.33
2019-04-10T16:25:46.694Z,15.50
2019-04-10T16:28:17.872Z,15.17
2019-04-10T16:30:48.645Z,16.47
2019-04-10T16:33:18.848Z,16.27
2019-04-10T16:35:48.347Z,17.03
2019-04-10T16:38:18.078Z,17.03
2019-04-10T16:40:48.051Z,13.57
2019-04-10T16:43:17.417Z,15.30
2019-04-10T16:45:46.925Z,16.07
2019-04-10T16:48:16.952Z,16.93
2019-04-10T16:50:46.316Z,15.80
2019-04-10T16:53:15.996Z,16.10
2019-04-10T16:55:45.354Z,15.97
2019-04-10T16:58:15.766Z,16.40
2019-04-10T17:00:45.431Z,16.57
2019-04-10T17:03:15.647Z,17.40
2019-04-10T17:05:45.955Z,15.70
2019-04-10T17:08:16.140Z,16.10
2019-04-10T17:10:45.712Z,14.57
2019-04-10T17:13:16.130Z,15.50
2019-04-10T17:15:48.539Z,16.37
2019-04-10T17:18:17.062Z,16.10
2019-04-10T17:20:46.861Z,14.87
2019-04-10T17:23:16.488Z,14.37
2019-04-10T17:25:48.735Z,12.87
2019-04-10T17:28:18.599Z,14.33
2019-04-10T17:30:53.822Z,13.27
2019-04-10T17:33:25.236Z,13.20
2019-04-10T17:35:54.491Z,13.37
2019-04-10T17:38:24.563Z,14.60
2019-04-10T17:40:58.779Z,14.70
2019-04-10T17:43:28.637Z,12.63
2019-04-10T17:45:58.742Z,12.57
2019-04-10T17:48:28.349Z,13.07
2019-04-10T17:50:59.374Z,12.57
2019-04-10T17:53:29.394Z,11.50
2019-04-10T17:56:00.063Z,12.70
2019-04-10T17:58:29.763Z,12.53
2019-04-10T18:01:01.773Z,13.03
2019-04-10T18:03:42.933Z,11.83
2019-04-10T18:06:03.320Z,12.37
2019-04-10T18:08:32.801Z,11.57
2019-04-10T18:11:02.075Z,11.77
2019-04-10T18:13:31.372Z,13.03
2019-04-10T18:16:00.641Z,12.00
2019-04-10T18:18:30.055Z,14.10
2019-04-10T18:21:00.178Z,11.17
2019-04-10T18:23:29.638Z,10.80
2019-04-10T18:25:58.993Z,11.10
2019-04-10T18:28:30.965Z,13.03
2019-04-10T18:30:59.338Z,11.23
2019-04-10T18:33:28.950Z,11.00
2019-04-10T18:35:59.391Z,10.47
2019-04-10T18:38:29.832Z,9.47
2019-04-10T18:41:03.744Z,11.13
2019-04-10T18:43:30.393Z,10.00
2019-04-10T18:46:09.205Z,9.80
2019-04-10T18:48:31.150Z,10.87
2019-04-10T18:51:01.474Z,12.10
2019-04-10T18:53:31.653Z,10.17
2019-04-10T18:56:00.924Z,11.17
2019-04-10T18:58:38.039Z,10.80
2019-04-10T19:01:21.140Z,12.03
2019-04-10T19:04:02.242Z,10.67
2019-04-10T19:06:42.785Z,10.40
2019-04-10T19:09:20.044Z,11.40
2019-04-10T19:11:44.925Z,8.43
2019-04-10T19:14:14.465Z,9.27
2019-04-10T19:16:47.854Z,9.93
2019-04-10T19:19:18.450Z,10.50
2019-04-10T19:21:51.453Z,11.63
2019-04-10T19:24:30.266Z,10.90
2019-04-10T19:27:00.038Z,10.07
2019-04-10T19:29:31.816Z,10.30
2019-04-10T19:32:03.746Z,10.40
2019-04-10T19:34:34.286Z,10.17
2019-04-10T19:37:09.424Z,9.60
2019-04-10T19:39:40.393Z,9.70
2019-04-10T19:42:15.331Z,9.40
2019-04-10T19:44:49.432Z,10.70
2019-04-10T19:47:19.736Z,10.07
2019-04-10T19:49:49.431Z,9.70
2019-04-10T19:52:18.737Z,10.43
2019-04-10T19:54:49.246Z,10.00
2019-04-10T19:57:19.335Z,10.87
2019-04-10T19:59:50.027Z,9.70
2019-04-10T20:02:19.646Z,10.77
2019-04-10T20:04:49.049Z,11.60
2019-04-10T20:07:21.201Z,10.13
2019-04-10T20:09:50.671Z,9.10
2019-04-10T20:12:20.280Z,10.43
2019-04-10T20:14:49.686Z,9.30
2019-04-10T20:17:19.822Z,9.30
2019-04-10T20:19:49.288Z,10.20
2019-04-10T20:22:18.827Z,11.93
2019-04-10T20:24:50.135Z,11.30
2019-04-10T20:27:20.237Z,10.23
2019-04-10T20:29:51.115Z,11.33
2019-04-10T20:32:21.691Z,9.20
2019-04-10T20:34:51.766Z,10.53
2019-04-10T20:37:21.185Z,10.43
2019-04-10T20:39:51.628Z,11.83
2019-04-10T20:42:22.490Z,10.70
2019-04-10T20:44:53.314Z,12.07
2019-04-10T20:47:22.841Z,9.70
2019-04-10T20:49:53.247Z,10.60
2019-04-10T20:52:23.073Z,11.23
2019-04-10T20:54:53.155Z,10.30
2019-04-10T20:57:23.559Z,10.67
2019-04-10T20:59:53.274Z,9.93
2019-04-10T21:02:24.325Z,11.07
2019-04-10T21:05:00.543Z,10.27
2019-04-10T21:07:25.534Z,10.27
2019-04-10T21:09:55.024Z,11.23
2019-04-10T21:12:24.322Z,11.33
2019-04-10T21:14:54.673Z,10.50
2019-04-10T21:17:24.879Z,10.40
2019-04-10T21:19:54.342Z,10.13
2019-04-10T21:22:24.428Z,10.57
2019-04-10T21:24:54.151Z,9.57
2019-04-10T21:27:23.556Z,11.27
2019-04-10T21:30:11.793Z,9.40
2019-04-10T21:32:52.825Z,9.93
2019-04-10T21:35:27.109Z,10.40
2019-04-10T21:37:56.940Z,9.10
2019-04-10T21:40:27.192Z,11.00
2019-04-10T21:42:56.691Z,10.10
2019-04-10T21:45:26.461Z,9.60
2019-04-10T21:48:06.363Z,8.97
2019-04-10T21:50:39.705Z,10.43
2019-04-10T21:53:10.164Z,10.70
2019-04-10T21:55:41.622Z,11.40
2019-04-10T21:58:12.919Z,10.73
2019-04-10T22:01:01.757Z,10.73
2019-04-10T22:03:31.718Z,11.13
2019-04-10T22:06:16.378Z,9.97
2019-04-10T22:08:52.025Z,10.47
2019-04-10T22:11:21.770Z,10.60
2019-04-10T22:13:51.049Z,9.00
2019-04-10T22:16:23.920Z,8.73
2019-04-10T22:18:54.087Z,8.93
2019-04-10T22:21:23.472Z,7.97
2019-04-10T22:23:56.723Z,9.37
2019-04-10T22:26:27.690Z,7.87
2019-04-10T22:28:57.056Z,8.67
2019-04-10T22:31:27.863Z,9.37
2019-04-10T22:33:57.291Z,9.40
2019-04-10T22:36:26.564Z,9.53
2019-04-10T22:38:55.858Z,9.27
2019-04-10T22:41:30.302Z,8.70
2019-04-10T22:43:57.025Z,8.50
2019-04-10T22:46:26.521Z,9.50
2019-04-10T22:48:55.805Z,8.50
2019-04-10T22:51:25.094Z,8.00
2019-04-10T22:53:55.531Z,8.23
2019-04-10T22:56:25.226Z,8.63
2019-04-10T22:58:54.561Z,8.90
2019-04-10T23:01:23.851Z,7.50
2019-04-10T23:03:53.133Z,8.50
2019-04-10T23:06:23.033Z,8.30
2019-04-10T23:08:52.376Z,8.33
2019-04-10T23:11:31.695Z,7.30
2019-04-10T23:13:52.692Z,8.40
2019-04-10T23:16:22.150Z,7.50
2019-04-10T23:18:51.846Z,7.93
2019-04-10T23:21:21.309Z,7.70
2019-04-10T23:23:51.589Z,7.40
2019-04-10T23:26:21.056Z,7.17
2019-04-10T23:28:51.857Z,9.00
2019-04-10T23:31:21.588Z,8.03
2019-04-10T23:33:52.184Z,8.40
2019-04-10T23:36:23.127Z,7.23
2019-04-10T23:38:52.896Z,7.77
2019-04-10T23:41:23.342Z,7.57
2019-04-10T23:43:53.629Z,6.97
2019-04-10T23:46:23.564Z,7.53
2019-04-10T23:48:53.039Z,7.80
2019-04-10T23:51:23.130Z,7.30
2019-04-10T23:53:53.070Z,9.83
2019-04-10T23:56:22.417Z,8.90
2019-04-10T23:58:51.741Z,8.17
